sensor_id;sensor_type;location;lat;lon;timestamp;P1;durP1;ratioP1;P2;durP2;ratioP2
76495;SDS011;65329;52.544;4.662;2023-03-02T00:01:59;47.72;;;20.00;;
76495;SDS011;65329;52.544;4.662;2023-03-02T00:04:48;36.85;;;13.30;;
76495;SDS011;65329;52.544;4.662;2023-03-02T00:07:28;33.78;;;14.57;;
76495;SDS011;65329;52.544;4.662;2023-03-02T00:09:59;45.88;;;20.52;;
76495;SDS011;65329;52.544;4.662;2023-03-02T00:12:28;31.67;;;13.23;;
76495;SDS011;65329;52.544;4.662;2023-03-02T00:14:57;51.67;;;21.33;;
76495;SDS011;65329;52.544;4.662;2023-03-02T00:17:25;37.53;;;16.27;;
76495;SDS011;65329;52.544;4.662;2023-03-02T00:19:56;48.63;;;21.35;;
76495;SDS011;65329;52.544;4.662;2023-03-02T00:22:39;47.70;;;17.25;;
76495;SDS011;65329;52.544;4.662;2023-03-02T00:25:23;48.65;;;19.77;;
76495;SDS011;65329;52.544;4.662;2023-03-02T00:27:50;51.40;;;21.30;;
76495;SDS011;65329;52.544;4.662;2023-03-02T00:30:18;49.20;;;20.33;;
76495;SDS011;65329;52.544;4.662;2023-03-02T00:32:46;43.63;;;18.80;;
76495;SDS011;65329;52.544;4.662;2023-03-02T00:35:14;42.55;;;17.95;;
76495;SDS011;65329;52.544;4.662;2023-03-02T00:37:41;47.33;;;21.02;;
76495;SDS011;65329;52.544;4.662;2023-03-02T00:40:10;41.50;;;16.13;;
76495;SDS011;65329;52.544;4.662;2023-03-02T00:42:39;36.95;;;16.38;;
76495;SDS011;65329;52.544;4.662;2023-03-02T00:45:08;48.72;;;21.10;;
76495;SDS011;65329;52.544;4.662;2023-03-02T00:47:38;46.83;;;20.85;;
76495;SDS011;65329;52.544;4.662;2023-03-02T00:50:07;42.47;;;17.08;;
76495;SDS011;65329;52.544;4.662;2023-03-02T00:52:35;48.33;;;20.90;;
76495;SDS011;65329;52.544;4.662;2023-03-02T00:55:02;28.35;;;12.60;;
76495;SDS011;65329;52.544;4.662;2023-03-02T00:57:29;40.90;;;17.52;;
76495;SDS011;65329;52.544;4.662;2023-03-02T01:00:03;40.00;;;18.10;;
76495;SDS011;65329;52.544;4.662;2023-03-02T01:02:35;41.70;;;16.85;;
76495;SDS011;65329;52.544;4.662;2023-03-02T01:05:13;38.17;;;17.33;;
76495;SDS011;65329;52.544;4.662;2023-03-02T01:07:40;48.83;;;20.17;;
76495;SDS011;65329;52.544;4.662;2023-03-02T01:10:09;38.00;;;16.45;;
76495;SDS011;65329;52.544;4.662;2023-03-02T01:12:38;43.15;;;19.65;;
76495;SDS011;65329;52.544;4.662;2023-03-02T01:15:06;29.90;;;13.55;;
76495;SDS011;65329;52.544;4.662;2023-03-02T01:17:34;26.13;;;10.95;;
76495;SDS011;65329;52.544;4.662;2023-03-02T01:20:02;39.63;;;17.65;;
76495;SDS011;65329;52.544;4.662;2023-03-02T01:22:31;36.10;;;17.52;;
76495;SDS011;65329;52.544;4.662;2023-03-02T01:24:58;31.63;;;13.93;;
76495;SDS011;65329;52.544;4.662;2023-03-02T01:27:26;33.83;;;15.50;;
76495;SDS011;65329;52.544;4.662;2023-03-02T01:29:56;24.30;;;11.52;;
76495;SDS011;65329;52.544;4.662;2023-03-02T01:32:24;34.95;;;15.90;;
76495;SDS011;65329;52.544;4.662;2023-03-02T01:35:01;27.83;;;11.93;;
76495;SDS011;65329;52.544;4.662;2023-03-02T01:37:31;42.15;;;16.77;;
76495;SDS011;65329;52.544;4.662;2023-03-02T01:39:58;34.47;;;16.33;;
76495;SDS011;65329;52.544;4.662;2023-03-02T01:42:32;39.67;;;15.57;;
76495;SDS011;65329;52.544;4.662;2023-03-02T01:45:02;38.88;;;16.75;;
76495;SDS011;65329;52.544;4.662;2023-03-02T01:47:37;39.92;;;15.90;;
76495;SDS011;65329;52.544;4.662;2023-03-02T01:50:17;37.72;;;17.20;;
76495;SDS011;65329;52.544;4.662;2023-03-02T01:52:58;38.20;;;16.00;;
76495;SDS011;65329;52.544;4.662;2023-03-02T01:55:27;25.08;;;10.18;;
76495;SDS011;65329;52.544;4.662;2023-03-02T01:57:59;34.72;;;15.57;;
76495;SDS011;65329;52.544;4.662;2023-03-02T02:00:30;37.40;;;15.18;;
76495;SDS011;65329;52.544;4.662;2023-03-02T02:03:10;36.10;;;15.73;;
76495;SDS011;65329;52.544;4.662;2023-03-02T02:05:50;28.17;;;11.88;;
76495;SDS011;65329;52.544;4.662;2023-03-02T02:08:27;32.00;;;13.52;;
76495;SDS011;65329;52.544;4.662;2023-03-02T02:11:01;32.78;;;14.60;;
76495;SDS011;65329;52.544;4.662;2023-03-02T02:13:30;36.13;;;16.42;;
76495;SDS011;65329;52.544;4.662;2023-03-02T02:16:00;24.40;;;11.50;;
76495;SDS011;65329;52.544;4.662;2023-03-02T02:18:27;29.42;;;14.35;;
76495;SDS011;65329;52.544;4.662;2023-03-02T02:21:06;30.35;;;13.82;;
76495;SDS011;65329;52.544;4.662;2023-03-02T02:26:43;29.23;;;13.02;;
76495;SDS011;65329;52.544;4.662;2023-03-02T02:29:14;24.58;;;11.57;;
76495;SDS011;65329;52.544;4.662;2023-03-02T02:32:02;29.98;;;13.90;;
76495;SDS011;65329;52.544;4.662;2023-03-02T02:37:31;31.48;;;13.50;;
76495;SDS011;65329;52.544;4.662;2023-03-02T02:40:05;29.95;;;13.43;;
76495;SDS011;65329;52.544;4.662;2023-03-02T02:42:43;33.28;;;14.00;;
76495;SDS011;65329;52.544;4.662;2023-03-02T02:45:19;28.25;;;12.60;;
76495;SDS011;65329;52.544;4.662;2023-03-02T02:47:52;28.75;;;13.15;;
76495;SDS011;65329;52.544;4.662;2023-03-02T02:50:26;30.08;;;13.63;;
76495;SDS011;65329;52.544;4.662;2023-03-02T02:53:01;29.35;;;13.07;;
76495;SDS011;65329;52.544;4.662;2023-03-02T02:55:41;30.52;;;12.30;;
76495;SDS011;65329;52.544;4.662;2023-03-02T02:58:27;30.35;;;13.07;;
76495;SDS011;65329;52.544;4.662;2023-03-02T03:01:02;34.35;;;13.60;;
76495;SDS011;65329;52.544;4.662;2023-03-02T03:03:35;29.58;;;13.63;;
76495;SDS011;65329;52.544;4.662;2023-03-02T03:06:10;31.67;;;13.45;;
76495;SDS011;65329;52.544;4.662;2023-03-02T03:11:30;26.25;;;12.82;;
76495;SDS011;65329;52.544;4.662;2023-03-02T03:14:11;21.48;;;10.02;;
76495;SDS011;65329;52.544;4.662;2023-03-02T03:16:51;25.83;;;11.60;;
76495;SDS011;65329;52.544;4.662;2023-03-02T03:21:59;25.48;;;11.45;;
76495;SDS011;65329;52.544;4.662;2023-03-02T03:24:32;32.05;;;12.82;;
76495;SDS011;65329;52.544;4.662;2023-03-02T03:27:03;21.73;;;9.95;;
76495;SDS011;65329;52.544;4.662;2023-03-02T03:29:37;24.33;;;10.55;;
76495;SDS011;65329;52.544;4.662;2023-03-02T03:32:08;28.65;;;12.80;;
76495;SDS011;65329;52.544;4.662;2023-03-02T03:34:37;29.58;;;12.52;;
76495;SDS011;65329;52.544;4.662;2023-03-02T03:37:17;27.67;;;12.77;;
76495;SDS011;65329;52.544;4.662;2023-03-02T03:39:46;28.63;;;12.35;;
76495;SDS011;65329;52.544;4.662;2023-03-02T03:42:14;19.33;;;7.85;;
76495;SDS011;65329;52.544;4.662;2023-03-02T03:44:43;25.38;;;11.73;;
76495;SDS011;65329;52.544;4.662;2023-03-02T03:47:13;20.90;;;8.40;;
76495;SDS011;65329;52.544;4.662;2023-03-02T03:49:44;27.52;;;12.73;;
76495;SDS011;65329;52.544;4.662;2023-03-02T03:52:15;21.42;;;10.98;;
76495;SDS011;65329;52.544;4.662;2023-03-02T03:54:43;26.48;;;12.38;;
76495;SDS011;65329;52.544;4.662;2023-03-02T03:57:13;27.63;;;10.50;;
76495;SDS011;65329;52.544;4.662;2023-03-02T03:59:43;23.25;;;10.73;;
76495;SDS011;65329;52.544;4.662;2023-03-02T04:02:11;19.27;;;8.30;;
76495;SDS011;65329;52.544;4.662;2023-03-02T04:04:44;15.57;;;8.18;;
76495;SDS011;65329;52.544;4.662;2023-03-02T04:07:15;21.92;;;10.75;;
76495;SDS011;65329;52.544;4.662;2023-03-02T04:09:47;20.00;;;9.18;;
76495;SDS011;65329;52.544;4.662;2023-03-02T04:12:14;16.02;;;8.02;;
76495;SDS011;65329;52.544;4.662;2023-03-02T04:14:49;17.77;;;9.77;;
76495;SDS011;65329;52.544;4.662;2023-03-02T04:17:16;25.20;;;11.25;;
76495;SDS011;65329;52.544;4.662;2023-03-02T04:19:47;28.10;;;13.15;;
76495;SDS011;65329;52.544;4.662;2023-03-02T04:22:14;26.98;;;13.75;;
76495;SDS011;65329;52.544;4.662;2023-03-02T04:24:42;26.48;;;12.70;;
76495;SDS011;65329;52.544;4.662;2023-03-02T04:27:17;29.58;;;13.65;;
76495;SDS011;65329;52.544;4.662;2023-03-02T04:29:45;23.20;;;10.45;;
76495;SDS011;65329;52.544;4.662;2023-03-02T04:32:15;27.40;;;12.48;;
76495;SDS011;65329;52.544;4.662;2023-03-02T04:34:51;22.02;;;11.23;;
76495;SDS011;65329;52.544;4.662;2023-03-02T04:37:20;26.52;;;11.35;;
76495;SDS011;65329;52.544;4.662;2023-03-02T04:39:50;29.73;;;12.27;;
76495;SDS011;65329;52.544;4.662;2023-03-02T04:42:19;27.30;;;12.65;;
76495;SDS011;65329;52.544;4.662;2023-03-02T04:44:47;26.90;;;12.13;;
76495;SDS011;65329;52.544;4.662;2023-03-02T04:47:16;30.35;;;13.20;;
76495;SDS011;65329;52.544;4.662;2023-03-02T04:49:44;18.58;;;8.13;;
76495;SDS011;65329;52.544;4.662;2023-03-02T04:52:12;24.45;;;10.57;;
76495;SDS011;65329;52.544;4.662;2023-03-02T04:54:42;30.70;;;12.85;;
76495;SDS011;65329;52.544;4.662;2023-03-02T04:57:12;28.92;;;12.85;;
76495;SDS011;65329;52.544;4.662;2023-03-02T04:59:40;21.95;;;10.95;;
76495;SDS011;65329;52.544;4.662;2023-03-02T05:02:07;22.05;;;10.60;;
76495;SDS011;65329;52.544;4.662;2023-03-02T05:04:34;14.20;;;6.95;;
76495;SDS011;65329;52.544;4.662;2023-03-02T05:07:02;29.02;;;14.23;;
76495;SDS011;65329;52.544;4.662;2023-03-02T05:09:31;28.75;;;12.95;;
76495;SDS011;65329;52.544;4.662;2023-03-02T05:12:01;24.88;;;11.45;;
76495;SDS011;65329;52.544;4.662;2023-03-02T05:14:29;28.05;;;12.25;;
76495;SDS011;65329;52.544;4.662;2023-03-02T05:17:01;25.58;;;10.80;;
76495;SDS011;65329;52.544;4.662;2023-03-02T05:19:31;25.98;;;12.02;;
76495;SDS011;65329;52.544;4.662;2023-03-02T05:21:58;26.83;;;12.00;;
76495;SDS011;65329;52.544;4.662;2023-03-02T05:24:26;27.63;;;12.55;;
76495;SDS011;65329;52.544;4.662;2023-03-02T05:26:54;26.20;;;11.10;;
76495;SDS011;65329;52.544;4.662;2023-03-02T05:29:21;25.38;;;11.60;;
76495;SDS011;65329;52.544;4.662;2023-03-02T05:31:54;26.40;;;10.00;;
76495;SDS011;65329;52.544;4.662;2023-03-02T05:34:22;22.67;;;11.13;;
76495;SDS011;65329;52.544;4.662;2023-03-02T05:36:50;28.83;;;13.70;;
76495;SDS011;65329;52.544;4.662;2023-03-02T05:39:17;23.27;;;10.25;;
76495;SDS011;65329;52.544;4.662;2023-03-02T05:41:45;26.20;;;10.55;;
76495;SDS011;65329;52.544;4.662;2023-03-02T05:44:12;15.73;;;8.07;;
76495;SDS011;65329;52.544;4.662;2023-03-02T05:46:41;12.93;;;6.75;;
76495;SDS011;65329;52.544;4.662;2023-03-02T05:49:09;25.55;;;10.70;;
76495;SDS011;65329;52.544;4.662;2023-03-02T05:51:37;25.30;;;11.02;;
76495;SDS011;65329;52.544;4.662;2023-03-02T05:54:06;20.92;;;10.20;;
76495;SDS011;65329;52.544;4.662;2023-03-02T05:56:33;21.15;;;8.65;;
76495;SDS011;65329;52.544;4.662;2023-03-02T05:59:02;26.65;;;12.27;;
76495;SDS011;65329;52.544;4.662;2023-03-02T06:01:34;24.92;;;11.30;;
76495;SDS011;65329;52.544;4.662;2023-03-02T06:04:07;20.63;;;11.50;;
76495;SDS011;65329;52.544;4.662;2023-03-02T06:06:35;30.85;;;12.85;;
76495;SDS011;65329;52.544;4.662;2023-03-02T06:09:07;24.77;;;11.80;;
76495;SDS011;65329;52.544;4.662;2023-03-02T06:11:35;29.45;;;12.85;;
76495;SDS011;65329;52.544;4.662;2023-03-02T06:14:03;21.73;;;10.20;;
76495;SDS011;65329;52.544;4.662;2023-03-02T06:16:34;22.08;;;10.45;;
76495;SDS011;65329;52.544;4.662;2023-03-02T06:19:06;20.63;;;9.15;;
76495;SDS011;65329;52.544;4.662;2023-03-02T06:21:36;12.48;;;5.40;;
76495;SDS011;65329;52.544;4.662;2023-03-02T06:24:04;9.90;;;5.18;;
76495;SDS011;65329;52.544;4.662;2023-03-02T06:26:31;21.92;;;9.57;;
76495;SDS011;65329;52.544;4.662;2023-03-02T06:28:59;25.48;;;10.63;;
76495;SDS011;65329;52.544;4.662;2023-03-02T06:31:26;20.20;;;9.25;;
76495;SDS011;65329;52.544;4.662;2023-03-02T06:36:48;26.73;;;11.88;;
76495;SDS011;65329;52.544;4.662;2023-03-02T06:39:16;29.13;;;11.27;;
76495;SDS011;65329;52.544;4.662;2023-03-02T06:41:45;23.92;;;10.98;;
76495;SDS011;65329;52.544;4.662;2023-03-02T06:44:16;18.33;;;8.80;;
76495;SDS011;65329;52.544;4.662;2023-03-02T06:46:44;25.20;;;10.80;;
76495;SDS011;65329;52.544;4.662;2023-03-02T06:49:16;21.77;;;9.07;;
76495;SDS011;65329;52.544;4.662;2023-03-02T06:51:44;27.45;;;12.68;;
76495;SDS011;65329;52.544;4.662;2023-03-02T06:54:11;22.80;;;10.05;;
76495;SDS011;65329;52.544;4.662;2023-03-02T06:56:39;20.20;;;10.15;;
76495;SDS011;65329;52.544;4.662;2023-03-02T07:02:08;17.95;;;8.38;;
76495;SDS011;65329;52.544;4.662;2023-03-02T07:04:36;17.48;;;7.75;;
76495;SDS011;65329;52.544;4.662;2023-03-02T07:07:04;28.23;;;12.90;;
76495;SDS011;65329;52.544;4.662;2023-03-02T07:09:38;21.30;;;10.07;;
76495;SDS011;65329;52.544;4.662;2023-03-02T07:12:08;19.05;;;9.38;;
76495;SDS011;65329;52.544;4.662;2023-03-02T07:14:45;22.92;;;12.05;;
76495;SDS011;65329;52.544;4.662;2023-03-02T07:17:12;25.08;;;10.95;;
76495;SDS011;65329;52.544;4.662;2023-03-02T07:19:39;30.08;;;12.30;;
76495;SDS011;65329;52.544;4.662;2023-03-02T07:22:07;23.00;;;11.27;;
76495;SDS011;65329;52.544;4.662;2023-03-02T07:24:34;22.48;;;10.65;;
76495;SDS011;65329;52.544;4.662;2023-03-02T07:27:01;20.40;;;8.27;;
76495;SDS011;65329;52.544;4.662;2023-03-02T07:29:31;21.10;;;10.10;;
76495;SDS011;65329;52.544;4.662;2023-03-02T07:31:58;18.00;;;9.15;;
76495;SDS011;65329;52.544;4.662;2023-03-02T07:34:28;15.07;;;7.32;;
76495;SDS011;65329;52.544;4.662;2023-03-02T07:36:58;25.13;;;10.85;;
76495;SDS011;65329;52.544;4.662;2023-03-02T07:39:26;29.67;;;10.93;;
76495;SDS011;65329;52.544;4.662;2023-03-02T07:41:58;20.23;;;9.93;;
76495;SDS011;65329;52.544;4.662;2023-03-02T07:44:27;28.77;;;12.93;;
76495;SDS011;65329;52.544;4.662;2023-03-02T07:46:56;22.75;;;9.25;;
76495;SDS011;65329;52.544;4.662;2023-03-02T07:49:24;26.17;;;13.10;;
76495;SDS011;65329;52.544;4.662;2023-03-02T07:51:55;28.90;;;12.35;;
76495;SDS011;65329;52.544;4.662;2023-03-02T07:54:24;25.33;;;10.07;;
76495;SDS011;65329;52.544;4.662;2023-03-02T07:56:57;26.55;;;10.25;;
76495;SDS011;65329;52.544;4.662;2023-03-02T07:59:30;17.48;;;9.13;;
76495;SDS011;65329;52.544;4.662;2023-03-02T08:02:00;22.00;;;9.65;;
76495;SDS011;65329;52.544;4.662;2023-03-02T08:04:27;24.30;;;11.38;;
76495;SDS011;65329;52.544;4.662;2023-03-02T08:06:55;22.98;;;9.82;;
76495;SDS011;65329;52.544;4.662;2023-03-02T08:09:23;25.90;;;11.07;;
76495;SDS011;65329;52.544;4.662;2023-03-02T08:11:51;26.83;;;13.45;;
76495;SDS011;65329;52.544;4.662;2023-03-02T08:14:18;24.20;;;10.55;;
76495;SDS011;65329;52.544;4.662;2023-03-02T08:16:44;30.70;;;15.05;;
76495;SDS011;65329;52.544;4.662;2023-03-02T08:19:15;27.67;;;12.48;;
76495;SDS011;65329;52.544;4.662;2023-03-02T08:21:42;21.25;;;10.27;;
76495;SDS011;65329;52.544;4.662;2023-03-02T08:24:09;21.60;;;11.68;;
76495;SDS011;65329;52.544;4.662;2023-03-02T08:26:38;26.70;;;11.60;;
76495;SDS011;65329;52.544;4.662;2023-03-02T08:29:05;25.73;;;11.75;;
76495;SDS011;65329;52.544;4.662;2023-03-02T08:31:33;25.45;;;10.95;;
76495;SDS011;65329;52.544;4.662;2023-03-02T08:34:01;24.15;;;10.27;;
76495;SDS011;65329;52.544;4.662;2023-03-02T08:36:28;17.50;;;7.35;;
76495;SDS011;65329;52.544;4.662;2023-03-02T08:39:02;20.63;;;9.65;;
76495;SDS011;65329;52.544;4.662;2023-03-02T08:41:29;18.73;;;9.02;;
76495;SDS011;65329;52.544;4.662;2023-03-02T08:43:57;24.90;;;12.20;;
76495;SDS011;65329;52.544;4.662;2023-03-02T08:46:24;23.10;;;9.63;;
76495;SDS011;65329;52.544;4.662;2023-03-02T08:48:51;22.48;;;9.85;;
76495;SDS011;65329;52.544;4.662;2023-03-02T08:51:21;26.48;;;11.43;;
76495;SDS011;65329;52.544;4.662;2023-03-02T08:53:50;21.42;;;10.95;;
76495;SDS011;65329;52.544;4.662;2023-03-02T08:56:23;24.90;;;10.07;;
76495;SDS011;65329;52.544;4.662;2023-03-02T08:59:01;25.08;;;11.07;;
76495;SDS011;65329;52.544;4.662;2023-03-02T09:01:31;27.80;;;12.68;;
76495;SDS011;65329;52.544;4.662;2023-03-02T09:04:01;25.65;;;12.52;;
76495;SDS011;65329;52.544;4.662;2023-03-02T09:06:31;24.83;;;10.43;;
76495;SDS011;65329;52.544;4.662;2023-03-02T09:09:01;22.67;;;11.18;;
76495;SDS011;65329;52.544;4.662;2023-03-02T09:11:30;24.13;;;11.00;;
76495;SDS011;65329;52.544;4.662;2023-03-02T09:13:58;24.77;;;11.70;;
76495;SDS011;65329;52.544;4.662;2023-03-02T09:16:25;22.50;;;11.00;;
76495;SDS011;65329;52.544;4.662;2023-03-02T09:18:52;24.05;;;11.38;;
76495;SDS011;65329;52.544;4.662;2023-03-02T09:21:20;27.48;;;12.90;;
76495;SDS011;65329;52.544;4.662;2023-03-02T09:23:47;20.02;;;9.65;;
76495;SDS011;65329;52.544;4.662;2023-03-02T09:26:19;27.85;;;12.27;;
76495;SDS011;65329;52.544;4.662;2023-03-02T09:28:50;19.35;;;8.48;;
76495;SDS011;65329;52.544;4.662;2023-03-02T09:31:23;23.40;;;10.80;;
76495;SDS011;65329;52.544;4.662;2023-03-02T09:33:50;28.88;;;13.70;;
76495;SDS011;65329;52.544;4.662;2023-03-02T09:36:22;18.48;;;8.57;;
76495;SDS011;65329;52.544;4.662;2023-03-02T09:38:57;27.95;;;13.48;;
76495;SDS011;65329;52.544;4.662;2023-03-02T09:41:48;26.48;;;11.60;;
76495;SDS011;65329;52.544;4.662;2023-03-02T09:52:47;26.17;;;12.43;;
76495;SDS011;65329;52.544;4.662;2023-03-02T09:55:26;31.80;;;12.13;;
76495;SDS011;65329;52.544;4.662;2023-03-02T09:58:05;24.80;;;10.80;;
76495;SDS011;65329;52.544;4.662;2023-03-02T10:00:39;23.92;;;11.30;;
76495;SDS011;65329;52.544;4.662;2023-03-02T10:03:20;28.02;;;12.80;;
76495;SDS011;65329;52.544;4.662;2023-03-02T10:05:53;26.40;;;12.43;;
76495;SDS011;65329;52.544;4.662;2023-03-02T10:08:22;29.90;;;14.00;;
76495;SDS011;65329;52.544;4.662;2023-03-02T10:21:27;14.30;;;7.53;;
76495;SDS011;65329;52.544;4.662;2023-03-02T10:32:15;13.02;;;6.72;;
76495;SDS011;65329;52.544;4.662;2023-03-02T10:34:49;25.75;;;11.57;;
76495;SDS011;65329;52.544;4.662;2023-03-02T10:37:21;28.05;;;12.75;;
76495;SDS011;65329;52.544;4.662;2023-03-02T10:39:51;20.25;;;10.82;;
76495;SDS011;65329;52.544;4.662;2023-03-02T10:42:26;28.77;;;13.18;;
76495;SDS011;65329;52.544;4.662;2023-03-02T10:47:34;24.73;;;12.38;;
76495;SDS011;65329;52.544;4.662;2023-03-02T10:50:16;23.33;;;9.77;;
76495;SDS011;65329;52.544;4.662;2023-03-02T10:52:49;23.27;;;11.45;;
76495;SDS011;65329;52.544;4.662;2023-03-02T10:55:28;24.73;;;12.15;;
76495;SDS011;65329;52.544;4.662;2023-03-02T10:58:03;22.40;;;11.68;;
76495;SDS011;65329;52.544;4.662;2023-03-02T11:00:32;21.65;;;11.10;;
76495;SDS011;65329;52.544;4.662;2023-03-02T11:03:01;25.10;;;10.55;;
76495;SDS011;65329;52.544;4.662;2023-03-02T11:08:04;26.15;;;12.65;;
76495;SDS011;65329;52.544;4.662;2023-03-02T11:10:35;25.35;;;11.02;;
76495;SDS011;65329;52.544;4.662;2023-03-02T11:24:34;24.23;;;11.70;;
76495;SDS011;65329;52.544;4.662;2023-03-02T11:27:17;23.40;;;11.05;;
76495;SDS011;65329;52.544;4.662;2023-03-02T11:32:50;20.85;;;10.05;;
76495;SDS011;65329;52.544;4.662;2023-03-02T11:35:27;21.23;;;10.38;;
76495;SDS011;65329;52.544;4.662;2023-03-02T11:41:31;21.13;;;10.70;;
76495;SDS011;65329;52.544;4.662;2023-03-02T11:44:01;25.02;;;12.25;;
76495;SDS011;65329;52.544;4.662;2023-03-02T11:46:39;26.60;;;12.27;;
76495;SDS011;65329;52.544;4.662;2023-03-02T11:52:20;23.63;;;11.95;;
76495;SDS011;65329;52.544;4.662;2023-03-02T11:55:34;15.40;;;9.55;;
76495;SDS011;65329;52.544;4.662;2023-03-02T11:57:54;24.85;;;11.02;;
76495;SDS011;65329;52.544;4.662;2023-03-02T12:00:32;26.42;;;12.63;;
76495;SDS011;65329;52.544;4.662;2023-03-02T12:03:17;21.33;;;11.10;;
76495;SDS011;65329;52.544;4.662;2023-03-02T12:06:24;27.80;;;11.85;;
76495;SDS011;65329;52.544;4.662;2023-03-02T12:08:42;16.65;;;7.97;;
76495;SDS011;65329;52.544;4.662;2023-03-02T12:16:38;26.75;;;13.00;;
76495;SDS011;65329;52.544;4.662;2023-03-02T12:19:25;25.67;;;12.00;;
76495;SDS011;65329;52.544;4.662;2023-03-02T12:21:58;21.10;;;9.63;;
76495;SDS011;65329;52.544;4.662;2023-03-02T12:24:31;26.35;;;12.80;;
76495;SDS011;65329;52.544;4.662;2023-03-02T12:29:55;18.38;;;8.90;;
76495;SDS011;65329;52.544;4.662;2023-03-02T12:32:35;26.48;;;13.15;;
76495;SDS011;65329;52.544;4.662;2023-03-02T12:35:08;21.58;;;10.70;;
76495;SDS011;65329;52.544;4.662;2023-03-02T12:51:26;27.20;;;13.32;;
76495;SDS011;65329;52.544;4.662;2023-03-02T12:54:02;26.25;;;10.88;;
76495;SDS011;65329;52.544;4.662;2023-03-02T12:56:29;26.75;;;12.05;;
76495;SDS011;65329;52.544;4.662;2023-03-02T12:58:57;27.40;;;13.20;;
76495;SDS011;65329;52.544;4.662;2023-03-02T13:01:26;32.58;;;14.25;;
76495;SDS011;65329;52.544;4.662;2023-03-02T13:03:57;28.42;;;12.30;;
76495;SDS011;65329;52.544;4.662;2023-03-02T13:09:19;27.75;;;13.85;;
76495;SDS011;65329;52.544;4.662;2023-03-02T13:11:47;27.75;;;11.82;;
76495;SDS011;65329;52.544;4.662;2023-03-02T13:14:19;26.73;;;13.23;;
76495;SDS011;65329;52.544;4.662;2023-03-02T13:16:54;23.77;;;10.60;;
76495;SDS011;65329;52.544;4.662;2023-03-02T13:19:25;29.08;;;11.88;;
76495;SDS011;65329;52.544;4.662;2023-03-02T13:21:53;21.80;;;9.15;;
76495;SDS011;65329;52.544;4.662;2023-03-02T13:24:32;24.70;;;11.65;;
76495;SDS011;65329;52.544;4.662;2023-03-02T13:27:15;25.13;;;11.80;;
76495;SDS011;65329;52.544;4.662;2023-03-02T13:34:59;16.58;;;8.55;;
76495;SDS011;65329;52.544;4.662;2023-03-02T13:37:33;24.70;;;10.10;;
76495;SDS011;65329;52.544;4.662;2023-03-02T13:42:55;27.00;;;11.43;;
76495;SDS011;65329;52.544;4.662;2023-03-02T13:45:29;23.38;;;11.30;;
76495;SDS011;65329;52.544;4.662;2023-03-02T13:47:58;26.77;;;12.27;;
76495;SDS011;65329;52.544;4.662;2023-03-02T13:50:37;23.85;;;12.00;;
76495;SDS011;65329;52.544;4.662;2023-03-02T13:53:04;26.70;;;12.23;;
76495;SDS011;65329;52.544;4.662;2023-03-02T13:55:33;22.60;;;10.02;;
76495;SDS011;65329;52.544;4.662;2023-03-02T13:58:00;27.73;;;12.57;;
76495;SDS011;65329;52.544;4.662;2023-03-02T14:00:30;27.67;;;12.75;;
76495;SDS011;65329;52.544;4.662;2023-03-02T14:02:59;15.98;;;7.60;;
76495;SDS011;65329;52.544;4.662;2023-03-02T14:05:35;21.17;;;8.52;;
76495;SDS011;65329;52.544;4.662;2023-03-02T14:08:02;26.58;;;12.07;;
76495;SDS011;65329;52.544;4.662;2023-03-02T14:10:29;17.88;;;8.82;;
76495;SDS011;65329;52.544;4.662;2023-03-02T14:12:57;20.60;;;9.57;;
76495;SDS011;65329;52.544;4.662;2023-03-02T14:15:30;19.52;;;9.65;;
76495;SDS011;65329;52.544;4.662;2023-03-02T14:17:58;28.48;;;12.20;;
76495;SDS011;65329;52.544;4.662;2023-03-02T14:22:58;23.60;;;10.82;;
76495;SDS011;65329;52.544;4.662;2023-03-02T14:25:28;24.00;;;8.80;;
76495;SDS011;65329;52.544;4.662;2023-03-02T14:27:55;22.13;;;9.45;;
76495;SDS011;65329;52.544;4.662;2023-03-02T14:30:22;25.65;;;11.23;;
76495;SDS011;65329;52.544;4.662;2023-03-02T14:32:51;24.10;;;11.15;;
76495;SDS011;65329;52.544;4.662;2023-03-02T14:35:18;19.92;;;10.48;;
76495;SDS011;65329;52.544;4.662;2023-03-02T14:37:50;23.70;;;10.73;;
76495;SDS011;65329;52.544;4.662;2023-03-02T14:40:25;20.00;;;9.82;;
76495;SDS011;65329;52.544;4.662;2023-03-02T14:42:53;21.25;;;10.32;;
76495;SDS011;65329;52.544;4.662;2023-03-02T14:45:20;21.95;;;9.50;;
76495;SDS011;65329;52.544;4.662;2023-03-02T14:47:47;16.33;;;8.57;;
76495;SDS011;65329;52.544;4.662;2023-03-02T14:50:15;21.23;;;10.85;;
76495;SDS011;65329;52.544;4.662;2023-03-02T14:52:50;16.90;;;9.68;;
76495;SDS011;65329;52.544;4.662;2023-03-02T14:55:27;21.73;;;9.07;;
76495;SDS011;65329;52.544;4.662;2023-03-02T14:58:02;18.38;;;8.10;;
76495;SDS011;65329;52.544;4.662;2023-03-02T15:00:31;19.60;;;9.93;;
76495;SDS011;65329;52.544;4.662;2023-03-02T15:02:59;20.35;;;9.15;;
76495;SDS011;65329;52.544;4.662;2023-03-02T15:05:26;17.10;;;8.30;;
76495;SDS011;65329;52.544;4.662;2023-03-02T15:07:55;20.17;;;9.02;;
76495;SDS011;65329;52.544;4.662;2023-03-02T15:10:24;15.52;;;8.30;;
76495;SDS011;65329;52.544;4.662;2023-03-02T15:12:50;20.52;;;9.25;;
76495;SDS011;65329;52.544;4.662;2023-03-02T15:15:19;13.13;;;6.35;;
76495;SDS011;65329;52.544;4.662;2023-03-02T15:17:47;16.33;;;8.15;;
76495;SDS011;65329;52.544;4.662;2023-03-02T15:20:18;18.08;;;9.00;;
76495;SDS011;65329;52.544;4.662;2023-03-02T15:22:45;17.30;;;8.73;;
76495;SDS011;65329;52.544;4.662;2023-03-02T15:25:12;19.83;;;9.85;;
76495;SDS011;65329;52.544;4.662;2023-03-02T15:27:44;18.40;;;9.93;;
76495;SDS011;65329;52.544;4.662;2023-03-02T15:32:43;11.13;;;4.90;;
76495;SDS011;65329;52.544;4.662;2023-03-02T15:35:10;16.65;;;7.00;;
76495;SDS011;65329;52.544;4.662;2023-03-02T15:37:40;18.23;;;6.70;;
76495;SDS011;65329;52.544;4.662;2023-03-02T15:40:07;17.38;;;7.45;;
76495;SDS011;65329;52.544;4.662;2023-03-02T15:42:35;16.30;;;7.40;;
76495;SDS011;65329;52.544;4.662;2023-03-02T15:45:03;16.88;;;7.47;;
76495;SDS011;65329;52.544;4.662;2023-03-02T15:47:30;18.40;;;7.30;;
76495;SDS011;65329;52.544;4.662;2023-03-02T15:50:00;15.60;;;7.32;;
76495;SDS011;65329;52.544;4.662;2023-03-02T15:52:27;18.08;;;8.43;;
76495;SDS011;65329;52.544;4.662;2023-03-02T15:54:53;18.30;;;7.45;;
76495;SDS011;65329;52.544;4.662;2023-03-02T15:57:20;20.77;;;8.30;;
76495;SDS011;65329;52.544;4.662;2023-03-02T15:59:48;20.65;;;9.35;;
76495;SDS011;65329;52.544;4.662;2023-03-02T16:02:17;20.50;;;9.10;;
76495;SDS011;65329;52.544;4.662;2023-03-02T16:04:44;17.92;;;7.07;;
76495;SDS011;65329;52.544;4.662;2023-03-02T16:07:11;20.02;;;8.10;;
76495;SDS011;65329;52.544;4.662;2023-03-02T16:09:39;20.60;;;8.15;;
76495;SDS011;65329;52.544;4.662;2023-03-02T16:12:06;18.90;;;7.22;;
76495;SDS011;65329;52.544;4.662;2023-03-02T16:14:33;21.70;;;8.15;;
76495;SDS011;65329;52.544;4.662;2023-03-02T16:17:02;19.17;;;7.78;;
76495;SDS011;65329;52.544;4.662;2023-03-02T16:19:29;22.40;;;8.63;;
76495;SDS011;65329;52.544;4.662;2023-03-02T16:21:56;21.30;;;10.20;;
76495;SDS011;65329;52.544;4.662;2023-03-02T16:24:23;35.90;;;13.63;;
76495;SDS011;65329;52.544;4.662;2023-03-02T16:26:51;19.65;;;8.15;;
76495;SDS011;65329;52.544;4.662;2023-03-02T16:29:18;18.98;;;8.65;;
76495;SDS011;65329;52.544;4.662;2023-03-02T16:31:45;23.13;;;9.60;;
76495;SDS011;65329;52.544;4.662;2023-03-02T16:34:13;23.77;;;10.82;;
76495;SDS011;65329;52.544;4.662;2023-03-02T16:36:42;20.88;;;7.93;;